createdAt,value
2022-11-02T00:00:52.114Z,101544.31
2022-11-02T00:03:18.790Z,101551.50
2022-11-02T00:05:45.523Z,101543.53
2022-11-02T00:08:12.179Z,101547.06
2022-11-02T00:10:38.823Z,101543.59
2022-11-02T00:13:05.972Z,101549.84
2022-11-02T00:15:34.855Z,101550.81
2022-11-02T00:20:50.883Z,101545.63
2022-11-02T00:23:17.572Z,101543.00
2022-11-02T00:25:46.636Z,101546.59
2022-11-02T00:28:14.441Z,101553.75
2022-11-02T00:30:41.263Z,101557.31
2022-11-02T00:33:07.966Z,101553.81
2022-11-02T00:35:35.103Z,101548.50
2022-11-02T00:38:02.551Z,101546.75
2022-11-02T00:40:29.571Z,101542.31
2022-11-02T00:42:56.302Z,101548.63
2022-11-02T00:45:23.164Z,101557.56
2022-11-02T00:47:50.390Z,101559.41
2022-11-02T00:50:18.744Z,101562.06
2022-11-02T00:52:45.830Z,101562.09
2022-11-02T00:55:15.182Z,101553.28
2022-11-02T00:57:44.412Z,101551.53
2022-11-02T01:00:12.038Z,101556.03
2022-11-02T01:02:39.125Z,101551.63
2022-11-02T01:05:06.722Z,101553.38
2022-11-02T01:07:33.369Z,101554.25
2022-11-02T01:10:00.065Z,101552.50
2022-11-02T01:12:26.959Z,101554.25
2022-11-02T01:14:53.628Z,101554.28
2022-11-02T01:17:20.496Z,101553.47
2022-11-02T01:19:47.163Z,101550.81
2022-11-02T01:22:13.822Z,101553.47
2022-11-02T01:24:40.521Z,101554.38
2022-11-02T01:27:07.289Z,101550.84
2022-11-02T01:29:34.071Z,101557.97
2022-11-02T01:32:00.752Z,101549.97
2022-11-02T01:34:27.457Z,101542.88
2022-11-02T01:36:54.518Z,101540.19
2022-11-02T01:39:21.192Z,101534.94
2022-11-02T01:41:52.744Z,101534.94
2022-11-02T01:44:35.690Z,101528.72
2022-11-02T01:47:07.767Z,101528.78
2022-11-02T01:49:37.121Z,101526.97
2022-11-02T01:52:08.548Z,101529.63
2022-11-02T01:54:45.167Z,101534.03
2022-11-02T01:57:14.121Z,101530.53
2022-11-02T01:59:53.218Z,101527.81
2022-11-02T02:02:21.746Z,101526.09
2022-11-02T02:04:51.680Z,101525.19
2022-11-02T02:07:18.741Z,101517.28
2022-11-02T02:09:48.771Z,101516.38
2022-11-02T02:12:18.230Z,101522.59
2022-11-02T02:14:44.998Z,101517.22
2022-11-02T02:17:18.605Z,101521.66
2022-11-02T02:19:56.370Z,101513.66
2022-11-02T02:23:05.310Z,101529.56
2022-11-02T02:26:19.963Z,101519.03
2022-11-02T02:29:07.392Z,101517.28
2022-11-02T02:31:38.640Z,101513.69
2022-11-02T02:34:24.187Z,101517.22
2022-11-02T02:37:36.879Z,101511.00
2022-11-02T02:40:16.354Z,101515.50
2022-11-02T02:42:56.966Z,101516.38
2022-11-02T02:45:33.058Z,101507.53
2022-11-02T02:48:04.303Z,101504.88
2022-11-02T02:50:37.067Z,101502.19
2022-11-02T02:53:06.861Z,101505.75
2022-11-02T02:55:38.193Z,101506.63
2022-11-02T02:58:07.816Z,101504.88
2022-11-02T03:00:36.267Z,101504.00
2022-11-02T03:03:04.731Z,101516.38
2022-11-02T03:05:36.825Z,101510.16
2022-11-02T03:08:12.766Z,101511.09
2022-11-02T03:11:03.188Z,101507.56
2022-11-02T03:14:07.947Z,101506.72
2022-11-02T03:17:04.681Z,101507.69
2022-11-02T03:19:55.680Z,101505.00
2022-11-02T03:22:59.639Z,101513.84
2022-11-02T03:25:30.845Z,101513.00
2022-11-02T03:28:06.647Z,101508.59
2022-11-02T03:30:37.587Z,101513.94
2022-11-02T03:33:08.344Z,101505.97
2022-11-02T03:35:43.083Z,101505.13
2022-11-02T03:38:36.396Z,101512.50
2022-11-02T03:41:04.975Z,101508.88
2022-11-02T03:43:34.886Z,101512.38
2022-11-02T03:46:03.337Z,101509.94
2022-11-02T03:48:33.708Z,101510.69
2022-11-02T03:51:03.706Z,101509.69
2022-11-02T03:53:44.123Z,101499.88
2022-11-02T03:56:24.102Z,101506.09
2022-11-02T03:58:51.077Z,101502.56
2022-11-02T04:01:20.106Z,101503.47
2022-11-02T04:03:47.912Z,101515.88
2022-11-02T04:06:15.085Z,101508.78
2022-11-02T04:08:49.145Z,101498.25
2022-11-02T04:11:37.409Z,101508.03
2022-11-02T04:14:26.983Z,101502.78
2022-11-02T04:17:12.285Z,101503.66
2022-11-02T04:19:45.399Z,101507.28
2022-11-02T04:22:34.766Z,101497.53
2022-11-02T04:25:19.058Z,101494.94
2022-11-02T04:28:08.570Z,101500.41
2022-11-02T04:30:40.576Z,101503.13
2022-11-02T04:33:26.022Z,101511.03
2022-11-02T04:36:03.288Z,101509.22
2022-11-02T04:38:43.435Z,101517.28
2022-11-02T04:41:40.253Z,101508.38
2022-11-02T04:44:13.311Z,101505.81
2022-11-02T04:46:41.455Z,101520.00
2022-11-02T04:49:09.865Z,101504.09
2022-11-02T04:51:41.721Z,101502.31
2022-11-02T04:54:11.195Z,101510.34
2022-11-02T04:56:40.223Z,101502.34
2022-11-02T04:59:06.990Z,101505.97
2022-11-02T05:01:36.240Z,101509.56
2022-11-02T05:04:04.712Z,101508.72
2022-11-02T05:06:33.463Z,101498.09
2022-11-02T05:09:00.197Z,101502.56
2022-11-02T05:11:26.929Z,101506.09
2022-11-02T05:13:54.922Z,101506.16
2022-11-02T05:16:21.842Z,101507.06
2022-11-02T05:18:51.319Z,101501.72
2022-11-02T05:21:19.552Z,101503.53
2022-11-02T05:23:48.142Z,101501.75
2022-11-02T05:26:14.938Z,101500.88
2022-11-02T05:28:46.010Z,101500.91
2022-11-02T05:31:13.050Z,101492.91
2022-11-02T05:33:40.410Z,101496.47
2022-11-02T05:36:12.915Z,101504.47
2022-11-02T05:38:42.916Z,101510.69
2022-11-02T05:41:09.939Z,101511.59
2022-11-02T05:43:38.963Z,101500.97
2022-11-02T05:46:07.843Z,101500.97
2022-11-02T05:48:34.531Z,101500.94
2022-11-02T05:51:03.112Z,101497.44
2022-11-02T05:53:34.297Z,101493.84
2022-11-02T05:56:02.349Z,101499.16
2022-11-02T05:58:29.643Z,101498.34
2022-11-02T06:00:59.802Z,101505.44
2022-11-02T06:03:26.701Z,101507.22
2022-11-02T06:06:01.382Z,101506.38
2022-11-02T06:08:28.181Z,101499.25
2022-11-02T06:10:54.986Z,101498.38
2022-11-02T06:13:21.911Z,101498.44
2022-11-02T06:15:48.607Z,101502.81
2022-11-02T06:18:15.277Z,101500.13
2022-11-02T06:20:41.924Z,101497.44
2022-11-02T06:23:08.915Z,101497.47
2022-11-02T06:25:36.022Z,101498.28
2022-11-02T06:28:02.623Z,101505.25
2022-11-02T06:30:31.283Z,101510.44
2022-11-02T06:33:01.615Z,101509.72
2022-11-02T06:35:32.649Z,101510.91
2022-11-02T06:37:59.403Z,101512.69
2022-11-02T06:40:26.877Z,101517.91
2022-11-02T06:43:15.456Z,101524.94
2022-11-02T06:45:43.024Z,101526.78
2022-11-02T06:48:09.689Z,101518.63
2022-11-02T06:50:36.422Z,101529.34
2022-11-02T06:53:03.281Z,101531.09
2022-11-02T06:55:30.242Z,101522.28
2022-11-02T06:57:57.004Z,101533.84
2022-11-02T07:00:24.194Z,101538.84
2022-11-02T07:03:05.989Z,101535.84
2022-11-02T07:05:33.774Z,101532.22
2022-11-02T07:08:00.665Z,101536.00
2022-11-02T07:10:28.206Z,101532.31
2022-11-02T07:12:56.406Z,101528.66
2022-11-02T07:15:24.412Z,101533.72
2022-11-02T07:17:52.370Z,101532.13
2022-11-02T07:20:19.295Z,101538.97
2022-11-02T07:22:53.644Z,101529.09
2022-11-02T07:25:20.365Z,101528.38
2022-11-02T07:27:47.081Z,101532.09
2022-11-02T07:30:13.866Z,101538.91
2022-11-02T07:32:41.526Z,101526.81
2022-11-02T07:35:09.771Z,101527.66
2022-11-02T07:37:36.749Z,101534.50
2022-11-02T07:40:05.245Z,101543.47
2022-11-02T07:42:32.016Z,101535.97
2022-11-02T07:44:58.854Z,101539.16
2022-11-02T07:47:26.144Z,101543.84
2022-11-02T07:49:55.053Z,101541.81
2022-11-02T07:52:23.746Z,101544.97
2022-11-02T07:54:50.885Z,101543.84
2022-11-02T07:57:17.615Z,101547.31
2022-11-02T07:59:44.271Z,101550.75
2022-11-02T08:02:13.722Z,101547.84
2022-11-02T08:04:43.880Z,101545.94
2022-11-02T08:07:12.710Z,101544.09
2022-11-02T08:09:39.542Z,101547.31
2022-11-02T08:12:07.989Z,101543.34
2022-11-02T08:14:39.804Z,101549.03
2022-11-02T08:17:08.013Z,101541.13
2022-11-02T08:19:38.213Z,101545.56
2022-11-02T08:22:05.465Z,101550.41
2022-11-02T08:24:32.286Z,101555.59
2022-11-02T08:26:58.942Z,101553.50
2022-11-02T08:29:25.706Z,101562.63
2022-11-02T08:31:52.427Z,101559.69
2022-11-02T08:34:19.122Z,101552.63
2022-11-02T08:36:45.803Z,101548.13
2022-11-02T08:39:18.483Z,101549.53
2022-11-02T08:41:45.741Z,101556.75
2022-11-02T08:44:12.437Z,101553.81
2022-11-02T08:46:39.108Z,101554.56
2022-11-02T08:49:05.821Z,101550.09
2022-11-02T08:51:32.531Z,101556.31
2022-11-02T08:53:59.489Z,101554.88
2022-11-02T08:56:26.283Z,101549.75
2022-11-02T08:58:52.945Z,101553.78
2022-11-02T09:01:19.675Z,101551.47
2022-11-02T09:03:46.408Z,101558.31
2022-11-02T09:06:13.083Z,101552.22
2022-11-02T09:08:39.780Z,101542.84
2022-11-02T09:11:06.564Z,101556.50
2022-11-02T09:13:33.292Z,101549.91
2022-11-02T09:16:00.516Z,101557.91
2022-11-02T09:18:27.505Z,101556.88
2022-11-02T09:20:54.275Z,101553.19
2022-11-02T09:23:22.031Z,101554.97
2022-11-02T09:25:49.754Z,101554.78
2022-11-02T09:28:16.515Z,101552.38
2022-11-02T09:30:43.488Z,101547.44
2022-11-02T09:33:10.269Z,101557.91
2022-11-02T09:35:43.285Z,101555.22
2022-11-02T09:38:10.287Z,101558.97
2022-11-02T09:40:40.334Z,101562.72
2022-11-02T09:43:36.282Z,101559.53
2022-11-02T09:46:29.242Z,101570.16
2022-11-02T09:48:57.289Z,101567.47
2022-11-02T09:51:31.767Z,101566.28
2022-11-02T09:54:13.188Z,101566.53
2022-11-02T09:56:43.716Z,101565.03
2022-11-02T09:59:15.796Z,101569.44
2022-11-02T10:01:45.489Z,101560.75
2022-11-02T10:04:18.100Z,101566.13
2022-11-02T10:06:51.086Z,101562.63
2022-11-02T10:09:40.688Z,101552.38
2022-11-02T10:12:17.155Z,101565.22
2022-11-02T10:14:57.420Z,101568.06
2022-11-02T10:17:29.852Z,101562.69
2022-11-02T10:19:58.463Z,101567.84
2022-11-02T10:22:29.218Z,101574.94
2022-11-02T10:24:57.329Z,101561.25
2022-11-02T10:27:30.755Z,101560.53
2022-11-02T10:30:07.828Z,101570.34
2022-11-02T10:32:36.994Z,101552.88
2022-11-02T10:38:00.206Z,101561.25
2022-11-02T10:40:57.946Z,101563.00
2022-11-02T10:43:36.791Z,101555.75
2022-11-02T10:46:19.733Z,101559.50
2022-11-02T10:48:53.521Z,101560.31
2022-11-02T10:51:22.031Z,101563.66
2022-11-02T10:53:51.530Z,101570.25
2022-11-02T10:56:21.349Z,101567.75
2022-11-02T10:59:00.670Z,101589.69
2022-11-02T11:01:28.940Z,101583.66
2022-11-02T11:04:05.767Z,101577.66
2022-11-02T11:06:41.126Z,101595.31
2022-11-02T11:09:23.423Z,101592.81
2022-11-02T11:12:02.708Z,101589.56
2022-11-02T11:20:34.837Z,101593.25
2022-11-02T11:23:27.960Z,101592.13
2022-11-02T11:25:58.686Z,101599.56
2022-11-02T11:28:33.910Z,101592.84
2022-11-02T11:31:04.759Z,101593.28
2022-11-02T11:33:33.105Z,101602.38
2022-11-02T11:36:00.237Z,101595.84
2022-11-02T11:38:27.501Z,101599.84
2022-11-02T11:40:58.214Z,101608.56
2022-11-02T11:43:30.652Z,101599.81
2022-11-02T11:46:06.386Z,101596.16
2022-11-02T11:48:42.074Z,101604.50
2022-11-02T11:51:37.687Z,101603.88
2022-11-02T11:54:28.718Z,101604.50
2022-11-02T11:57:17.209Z,101596.13
2022-11-02T11:59:43.869Z,101595.56
2022-11-02T12:02:25.851Z,101584.56
2022-11-02T12:04:59.193Z,101588.34
2022-11-02T12:07:55.732Z,101592.38
2022-11-02T12:10:53.893Z,101591.91
2022-11-02T12:13:27.815Z,101595.84
2022-11-02T12:16:00.634Z,101578.72
2022-11-02T12:18:38.195Z,101586.69
2022-11-02T12:21:11.194Z,101591.53
2022-11-02T12:23:53.137Z,101587.28
2022-11-02T12:26:53.438Z,101591.03
2022-11-02T12:29:26.284Z,101594.84
2022-11-02T12:32:05.100Z,101595.22
2022-11-02T12:35:22.963Z,101582.16
2022-11-02T12:37:45.420Z,101587.09
2022-11-02T12:40:30.731Z,101595.31
2022-11-02T12:43:03.717Z,101595.50
2022-11-02T12:46:09.194Z,101599.94
2022-11-02T12:48:38.869Z,101600.94
2022-11-02T12:51:10.494Z,101596.88
2022-11-02T12:53:55.035Z,101598.00
2022-11-02T12:56:38.949Z,101604.38
2022-11-02T12:59:05.670Z,101610.19
2022-11-02T13:01:37.866Z,101600.69
2022-11-02T13:04:17.723Z,101602.63
2022-11-02T13:06:47.107Z,101598.63
2022-11-02T13:09:21.759Z,101594.44
2022-11-02T13:11:53.480Z,101602.31
2022-11-02T13:14:21.126Z,101605.38
2022-11-02T13:16:56.238Z,101610.56
2022-11-02T13:19:35.383Z,101607.44
2022-11-02T13:22:03.385Z,101601.13
2022-11-02T13:24:34.012Z,101610.81
2022-11-02T13:29:55.314Z,101612.69
2022-11-02T13:32:57.869Z,101607.53
2022-11-02T13:35:33.154Z,101614.56
2022-11-02T13:38:13.460Z,101614.75
2022-11-02T13:40:45.031Z,101612.25
2022-11-02T13:43:27.370Z,101608.34
2022-11-02T13:46:19.059Z,101607.19
2022-11-02T13:49:05.348Z,101602.94
2022-11-02T13:51:38.581Z,101607.84
2022-11-02T13:54:16.427Z,101612.56
2022-11-02T13:56:43.721Z,101603.94
2022-11-02T13:59:19.828Z,101609.31
2022-11-02T14:01:46.818Z,101606.38
2022-11-02T14:04:15.155Z,101609.69
2022-11-02T14:06:46.855Z,101611.19
2022-11-02T14:09:24.200Z,101614.38
2022-11-02T14:11:51.123Z,101619.19
2022-11-02T14:14:24.910Z,101615.56
2022-11-02T14:16:51.588Z,101614.72
2022-11-02T14:19:20.244Z,101612.38
2022-11-02T14:21:59.767Z,101612.88
2022-11-02T14:24:32.638Z,101620.31
2022-11-02T14:27:21.310Z,101624.97
2022-11-02T14:29:47.914Z,101628.06
2022-11-02T14:32:17.830Z,101633.09
2022-11-02T14:34:50.874Z,101626.09
2022-11-02T14:37:45.073Z,101645.16
2022-11-02T14:40:20.019Z,101643.28
2022-11-02T14:43:01.829Z,101659.16
2022-11-02T14:45:52.997Z,101649.31
2022-11-02T14:48:19.789Z,101656.69
2022-11-02T14:51:07.869Z,101662.56
2022-11-02T14:53:36.373Z,101667.88
2022-11-02T14:56:03.243Z,101670.69
2022-11-02T14:58:35.932Z,101666.16
2022-11-02T15:01:03.999Z,101670.09
2022-11-02T15:03:39.459Z,101671.09
2022-11-02T15:06:13.582Z,101671.75
2022-11-02T15:08:43.208Z,101671.75
2022-11-02T15:11:47.612Z,101676.53
2022-11-02T15:14:52.423Z,101674.63
2022-11-02T15:17:19.109Z,101678.75
2022-11-02T15:19:47.626Z,101677.53
2022-11-02T15:22:32.662Z,101676.84
2022-11-02T15:25:25.875Z,101676.91
2022-11-02T15:27:57.913Z,101691.03
2022-11-02T15:30:28.287Z,101686.50
2022-11-02T15:33:05.377Z,101696.13
2022-11-02T15:35:37.653Z,101691.03
2022-11-02T15:38:28.093Z,101699.34
2022-11-02T15:41:05.906Z,101700.28
2022-11-02T15:43:57.289Z,101706.94
2022-11-02T15:46:30.276Z,101714.72
2022-11-02T15:49:12.377Z,101722.47
2022-11-02T15:52:07.239Z,101713.78
2022-11-02T15:55:01.054Z,101703.94
2022-11-02T15:58:09.707Z,101710.34
2022-11-02T16:00:36.726Z,101718.50
2022-11-02T16:03:05.479Z,101719.66
2022-11-02T16:05:52.804Z,101729.78
2022-11-02T16:08:24.233Z,101714.78
2022-11-02T16:10:51.385Z,101727.56
2022-11-02T16:13:21.223Z,101733.13
2022-11-02T16:15:49.110Z,101730.91
2022-11-02T16:18:42.708Z,101726.88
2022-11-02T16:21:16.835Z,101724.78
2022-11-02T16:23:48.545Z,101732.38
2022-11-02T16:26:22.324Z,101740.25
2022-11-02T16:28:51.313Z,101741.13
2022-11-02T16:31:22.640Z,101742.06
2022-11-02T16:33:49.350Z,101743.09
2022-11-02T16:36:36.854Z,101744.22
2022-11-02T16:39:16.675Z,101747.00
2022-11-02T16:41:48.814Z,101748.94
2022-11-02T16:44:24.469Z,101745.63
2022-11-02T16:46:55.341Z,101753.56
2022-11-02T16:49:23.573Z,101756.28
2022-11-02T16:52:17.975Z,101756.78
2022-11-02T16:54:44.954Z,101755.03
2022-11-02T16:57:21.740Z,101767.63
2022-11-02T17:00:00.121Z,101766.59
2022-11-02T17:02:38.425Z,101771.94
2022-11-02T17:05:07.255Z,101771.16
2022-11-02T17:07:36.447Z,101773.00
2022-11-02T17:10:04.737Z,101773.97
2022-11-02T17:12:37.719Z,101776.75
2022-11-02T17:15:14.127Z,101771.47
2022-11-02T17:17:40.824Z,101767.25
2022-11-02T17:20:15.546Z,101777.94
2022-11-02T17:23:00.192Z,101782.66
2022-11-02T17:25:31.053Z,101787.25
2022-11-02T17:28:00.126Z,101790.03
2022-11-02T17:30:29.860Z,101792.75
2022-11-02T17:33:01.475Z,101792.94
2022-11-02T17:35:28.217Z,101793.09
2022-11-02T17:37:55.015Z,101800.31
2022-11-02T17:40:22.245Z,101804.06
2022-11-02T17:43:02.212Z,101798.88
2022-11-02T17:45:33.906Z,101806.97
2022-11-02T17:48:01.975Z,101803.59
2022-11-02T17:50:31.446Z,101803.75
2022-11-02T17:52:59.332Z,101811.88
2022-11-02T17:55:31.261Z,101813.78
2022-11-02T17:57:58.424Z,101814.84
2022-11-02T18:00:25.873Z,101822.97
2022-11-02T18:02:57.525Z,101815.09
2022-11-02T18:05:31.283Z,101818.81
2022-11-02T18:07:58.727Z,101818.16
2022-11-02T18:10:28.088Z,101820.88
2022-11-02T18:12:55.145Z,101822.81
2022-11-02T18:15:27.298Z,101814.94
2022-11-02T18:17:55.105Z,101822.13
2022-11-02T18:20:23.056Z,101819.56
2022-11-02T18:22:50.056Z,101817.88
2022-11-02T18:25:18.525Z,101817.97
2022-11-02T18:27:46.041Z,101826.94
2022-11-02T18:30:15.233Z,101826.13
2022-11-02T18:32:43.288Z,101819.09
2022-11-02T18:35:12.436Z,101817.41
2022-11-02T18:37:39.533Z,101814.88
2022-11-02T18:40:07.898Z,101825.69
2022-11-02T18:42:38.662Z,101815.97
2022-11-02T18:45:06.145Z,101818.75
2022-11-02T18:47:32.973Z,101822.41
2022-11-02T18:50:00.819Z,101826.94
2022-11-02T18:52:32.112Z,101822.63
2022-11-02T18:55:03.671Z,101826.22
2022-11-02T18:57:33.764Z,101821.00
2022-11-02T19:00:02.813Z,101820.16
2022-11-02T19:02:30.015Z,101815.78
2022-11-02T19:04:56.915Z,101819.47
2022-11-02T19:07:42.243Z,101818.69
2022-11-02T19:10:15.230Z,101813.50
2022-11-02T19:12:42.007Z,101813.59
2022-11-02T19:15:09.053Z,101817.22
2022-11-02T19:17:35.983Z,101823.44
2022-11-02T19:20:06.281Z,101821.75
2022-11-02T19:22:32.957Z,101832.50
2022-11-02T19:25:01.329Z,101834.34
2022-11-02T19:27:28.295Z,101835.31
2022-11-02T19:29:55.079Z,101830.03
2022-11-02T19:32:21.780Z,101833.69
2022-11-02T19:34:48.509Z,101830.22
2022-11-02T19:37:15.242Z,101834.75
2022-11-02T19:39:41.948Z,101833.91
2022-11-02T19:42:08.799Z,101839.28
2022-11-02T19:44:41.229Z,101839.34
2022-11-02T19:47:09.622Z,101834.06
2022-11-02T19:49:36.299Z,101835.94
2022-11-02T19:52:03.023Z,101839.56
2022-11-02T19:54:29.887Z,101841.41
2022-11-02T19:56:56.585Z,101842.34
2022-11-02T19:59:23.356Z,101837.09
2022-11-02T20:01:51.088Z,101842.53
2022-11-02T20:04:17.915Z,101843.47
2022-11-02T20:06:45.114Z,101851.53
2022-11-02T20:09:16.961Z,101858.69
2022-11-02T20:11:47.167Z,101858.69
2022-11-02T20:14:15.844Z,101856.09
2022-11-02T20:16:42.655Z,101851.69
2022-11-02T20:19:09.747Z,101848.16
2022-11-02T20:21:42.772Z,101857.09
2022-11-02T20:24:10.621Z,101854.47
2022-11-02T20:26:39.898Z,101871.38
2022-11-02T20:29:07.080Z,101861.69
2022-11-02T20:31:35.656Z,101858.16
2022-11-02T20:34:03.528Z,101857.31
2022-11-02T20:36:30.451Z,101865.34
2022-11-02T20:38:57.377Z,101864.47
2022-11-02T20:41:24.673Z,101860.97
2022-11-02T20:43:53.255Z,101867.22
2022-11-02T20:46:39.956Z,101866.38
2022-11-02T20:49:20.481Z,101875.28
2022-11-02T20:51:52.308Z,101867.38
2022-11-02T20:54:20.049Z,101871.84
2022-11-02T20:56:47.464Z,101862.19
2022-11-02T20:59:14.383Z,101868.38
2022-11-02T21:01:41.490Z,101877.28
2022-11-02T21:04:08.483Z,101873.72
2022-11-02T21:06:35.129Z,101875.53
2022-11-02T21:09:09.118Z,101880.00
2022-11-02T21:11:57.400Z,101873.81
2022-11-02T21:14:24.605Z,101874.75
2022-11-02T21:16:51.350Z,101874.75
2022-11-02T21:19:18.123Z,101880.13
2022-11-02T21:21:45.229Z,101887.25
2022-11-02T21:24:12.258Z,101884.59
2022-11-02T21:26:38.932Z,101882.84
2022-11-02T21:29:05.642Z,101880.19
2022-11-02T21:31:32.286Z,101882.91
2022-11-02T21:33:58.950Z,101882.03
2022-11-02T21:36:25.650Z,101877.63
2022-11-02T21:38:52.339Z,101879.38
2022-11-02T21:41:26.709Z,101876.78
2022-11-02T21:43:55.595Z,101872.38
2022-11-02T21:46:24.259Z,101882.09
2022-11-02T21:48:51.092Z,101870.59
2022-11-02T21:51:19.576Z,101873.31
2022-11-02T21:53:47.448Z,101870.66
2022-11-02T21:56:22.265Z,101875.97
2022-11-02T21:58:49.391Z,101868.03
2022-11-02T22:01:43.636Z,101867.16
2022-11-02T22:04:17.397Z,101865.41
2022-11-02T22:06:44.171Z,101867.22
2022-11-02T22:09:12.110Z,101862.78
2022-11-02T22:11:38.945Z,101862.78
2022-11-02T22:14:05.717Z,101861.03
2022-11-02T22:16:37.683Z,101872.56
2022-11-02T22:19:12.925Z,101865.53
2022-11-02T22:21:43.556Z,101857.56
2022-11-02T22:24:11.004Z,101863.78
2022-11-02T22:26:38.403Z,101866.44
2022-11-02T22:29:05.409Z,101858.47
2022-11-02T22:31:40.350Z,101859.38
2022-11-02T22:34:09.169Z,101857.63
2022-11-02T22:36:36.638Z,101850.56
2022-11-02T22:39:05.348Z,101861.16
2022-11-02T22:41:45.799Z,101855.88
2022-11-02T22:44:21.053Z,101858.56
2022-11-02T22:46:49.863Z,101845.28
2022-11-02T22:49:18.610Z,101848.84
2022-11-02T22:51:49.593Z,101843.53
2022-11-02T22:54:17.962Z,101847.06
2022-11-02T22:56:46.398Z,101851.53
2022-11-02T22:59:13.226Z,101837.41
2022-11-02T23:01:40.378Z,101840.03
2022-11-02T23:04:07.640Z,101844.47
2022-11-02T23:06:34.917Z,101840.94
2022-11-02T23:09:02.336Z,101839.19
2022-11-02T23:11:36.435Z,101842.75
2022-11-02T23:14:08.279Z,101836.56
2022-11-02T23:16:38.904Z,101842.75
2022-11-02T23:19:30.964Z,101843.66
2022-11-02T23:22:20.634Z,101838.34
2022-11-02T23:25:14.167Z,101840.13
2022-11-02T23:28:08.645Z,101841.00
2022-11-02T23:30:55.576Z,101842.81
2022-11-02T23:33:24.179Z,101842.81
2022-11-02T23:36:09.937Z,101834.84
2022-11-02T23:38:55.954Z,101839.28
2022-11-02T23:41:22.604Z,101833.97
2022-11-02T23:43:49.444Z,101836.63
2022-11-02T23:46:16.284Z,101827.78
2022-11-02T23:48:44.927Z,101830.44
2022-11-02T23:51:32.465Z,101822.50
2022-11-02T23:54:17.906Z,101823.41
2022-11-02T23:56:44.682Z,101826.09
2022-11-02T23:59:16.661Z,101825.19
